Mount Washington, Kentucky
Current Conditions -  °F | °C
As of 5:56 AM on Friday 31 Oct 2014 (Local Time) from KSDF Reporting Station
Light Rain Light Rain  
Wind Chill: 46°   Ceiling: 3600
Heat Index: 48°   Visibility: 9mi
Dew Point: 42°   Wind: 5mph
Humidity: 80%   Direction: NA
Pressure: 30"   Gusts: NA
Location:  38.04°N, 85.54°W
Report Text: KSDF 310956Z VRB04KT 9SM -RA OVC036 09/06 A3000 RMK AO2 RAE28B52 SLP157 P0000 T00890056
Loading
Personal Weather Stations






























Interactive Weather Map
Tropical Storm Tracking
New forecast layout! Learn more

10-Day Weather Forecast

Advertisements
Track Severe Weather on mobile